| time (UTC) | temp F | wind direction | speed knots | gust knots | rain 1hr in | rain 24hr in | rain mn in | humidity % | barometer mb |
| 20260902120101 | 82 | 258 | 1.7 | 5.2 | 0.00 | 0.16 | 0.00 | 88 | 1013.7 |
| 20260902114619 | 82 | 259 | 0.9 | 7.0 | 0.00 | 0.16 | 0.00 | 88 | 1013.9 |
| 20260902113102 | 82 | 200 | 1.7 | 7.0 | 0.00 | 0.16 | 0.00 | 88 | 1014.0 |
| 20260902111604 | 82 | 273 | 1.7 | 6.1 | 0.00 | 0.16 | 0.00 | 87 | 1014.0 |
| 20260902110107 | 82 | 288 | 1.7 | 7.0 | 0.00 | 0.16 | 0.00 | 87 | 1014.0 |
| 20260902104602 | 82 | 0 | 1.7 | 7.0 | 0.00 | 0.16 | 0.00 | 87 | 1014.0 |
| 20260902103109 | 82 | 208 | 1.7 | 7.0 | 0.00 | 0.16 | 0.00 | 87 | 1014.0 |
| 20260902101600 | 82 | 227 | 0.9 | 6.1 | 0.00 | 0.16 | 0.00 | 87 | 1014.0 |
| 20260902094605 | 82 | 0 | 0.9 | 5.2 | 0.00 | 0.16 | 0.00 | 87 | 1013.9 |
| 20260902093059 | 82 | 0 | 1.7 | 6.1 | 0.00 | 0.16 | 0.00 | 87 | 1013.8 |
| 20260902091603 | 82 | 202 | 0.0 | 6.1 | 0.00 | 0.16 | 0.00 | 87 | 1013.7 |
| 20260902084601 | 82 | 270 | 1.7 | 7.0 | 0.00 | 0.16 | 0.00 | 86 | 1013.7 |
| 20260902083100 | 82 | 213 | 3.5 | 12.2 | 0.00 | 0.16 | 0.00 | 86 | 1013.6 |
| 20260902081559 | 82 | 213 | 0.9 | 8.7 | 0.00 | 0.16 | 0.00 | 86 | 1013.7 |
| 20260902074602 | 82 | 176 | 2.6 | 10.4 | 0.00 | 0.16 | 0.00 | 86 | 1013.8 |
| 20260902073101 | 82 | 289 | 0.9 | 7.0 | 0.00 | 0.16 | 0.00 | 87 | 1013.8 |
| 20260902071606 | 82 | 0 | 0.9 | 7.0 | 0.00 | 0.16 | 0.00 | 87 | 1014.0 |
| 20260902070105 | 82 | 263 | 0.0 | 6.1 | 0.00 | 0.16 | 0.00 | 87 | 1014.0 |
| 20260902064600 | 82 | 0 | 0.9 | 3.5 | 0.00 | 0.16 | 0.00 | 87 | 1013.8 |
| 20260902063109 | 82 | 0 | 0.9 | 4.3 | 0.00 | 0.16 | 0.00 | 87 | 1013.9 |
| 20260902061602 | 81 | 260 | 1.7 | 7.0 | 0.00 | 0.16 | 0.00 | 86 | 1013.8 |
| 20260902060128 | 81 | 265 | 0.9 | 5.2 | 0.00 | 0.16 | 0.00 | 85 | 1013.6 |
| 20260902054600 | 81 | 0 | 0.9 | 5.2 | 0.00 | 0.16 | 0.00 | 84 | 1013.7 |
| 20260902053100 | 80 | 249 | 0.0 | 5.2 | 0.00 | 0.16 | 0.00 | 85 | 1013.6 |
| 20260902051558 | 80 | 0 | 0.9 | 6.1 | 0.00 | 0.16 | 0.00 | 85 | 1013.5 |
| 20260902044604 | 80 | 0 | 0.0 | 0.9 | 0.00 | 0.16 | 0.16 | 86 | 1013.8 |
| 20260902043102 | 80 | 0 | 0.0 | 2.6 | 0.00 | 0.16 | 0.16 | 86 | 1013.9 |
| 20260902041611 | 80 | 0 | 0.0 | 2.6 | 0.00 | 0.16 | 0.16 | 86 | 1013.8 |
| 20260902040104 | 80 | 265 | 1.7 | 5.2 | 0.00 | 0.16 | 0.16 | 86 | 1013.8 |
| 20260902034604 | 80 | 0 | 0.0 | 4.3 | 0.00 | 0.16 | 0.16 | 86 | 1013.9 |
| 20260902033103 | 79 | 261 | 0.9 | 7.0 | 0.00 | 0.16 | 0.16 | 86 | 1013.9 |
| 20260902031603 | 79 | 0 | 0.0 | 3.5 | 0.00 | 0.16 | 0.16 | 87 | 1013.7 |
| 20260902030109 | 79 | 0 | 0.0 | 2.6 | 0.00 | 0.16 | 0.16 | 87 | 1013.6 |
| 20260902024601 | 79 | 0 | 0.9 | 4.3 | 0.00 | 0.16 | 0.16 | 88 | 1013.4 |
| 20260902023057 | 79 | 277 | 0.0 | 6.1 | 0.00 | 0.16 | 0.16 | 88 | 1013.0 |
| 20260902021600 | 78 | 0 | 1.7 | 5.2 | 0.00 | 0.16 | 0.16 | 89 | 1012.7 |
| 20260902014603 | 78 | 0 | 0.0 | 2.6 | 0.00 | 0.16 | 0.16 | 89 | 1012.5 |
| 20260902013100 | 78 | 0 | 0.0 | 1.7 | 0.00 | 0.16 | 0.16 | 89 | 1012.4 |
| 20260902011609 | 78 | 0 | 0.0 | 1.7 | 0.00 | 0.16 | 0.16 | 89 | 1012.3 |
| 20260902010100 | 78 | 271 | 0.0 | 2.6 | 0.00 | 0.16 | 0.16 | 89 | 1012.4 |
| 20260902004602 | 78 | 0 | 0.0 | 2.6 | 0.00 | 0.16 | 0.16 | 90 | 1012.2 |
| 20260902003106 | 78 | 274 | 0.0 | 2.6 | 0.00 | 0.16 | 0.16 | 90 | 1012.4 |
| 20260902001602 | 78 | 0 | 0.0 | 5.2 | 0.00 | 0.16 | 0.16 | 90 | 1012.7 |
| 20260902000120 | 78 | 0 | 0.0 | 1.7 | 0.00 | 0.16 | 0.16 | 90 | 1012.6 |
| 20260901234604 | 78 | 0 | 0.0 | 1.7 | 0.00 | 0.16 | 0.16 | 90 | 1012.5 |
| 20260901233108 | 78 | 0 | 0.0 | 2.6 | 0.00 | 0.16 | 0.16 | 90 | 1012.5 |
| 20260901231606 | 78 | 0 | 0.0 | 1.7 | 0.01 | 0.16 | 0.16 | 90 | 1012.7 |
| 20260901230115 | 78 | 0 | 0.0 | 0.9 | 0.03 | 0.16 | 0.16 | 90 | 1012.9 |
| 20260901224606 | 77 | 0 | 0.0 | 1.7 | 0.04 | 0.17 | 0.16 | 90 | 1013.0 |
| 20260901223117 | 77 | 0 | 0.0 | 0.0 | 0.08 | 0.17 | 0.16 | 90 | 1013.1 |
| 20260901221615 | 77 | 0 | 0.0 | 1.7 | 0.10 | 0.16 | 0.15 | 90 | 1013.1 |
| 20260901220134 | 77 | 0 | 0.0 | 1.7 | 0.08 | 0.14 | 0.13 | 89 | 1013.2 |
| 20260901214603 | 78 | 0 | 0.0 | 2.6 | 0.07 | 0.13 | 0.12 | 88 | 1013.5 |
| 20260901213128 | 79 | 0 | 0.0 | 4.3 | 0.03 | 0.09 | 0.08 | 87 | 1013.8 |
| 20260901211604 | 80 | 0 | 1.7 | 3.5 | 0.00 | 0.06 | 0.05 | 87 | 1014.0 |
| 20260901210106 | 80 | 0 | 0.0 | 0.0 | 0.00 | 0.06 | 0.05 | 87 | 1013.8 |
| 20260901204610 | 81 | 0 | 0.0 | 0.0 | 0.03 | 0.07 | 0.05 | 88 | 1013.8 |
| 20260901203110 | 81 | 0 | 0.0 | 0.0 | 0.05 | 0.07 | 0.05 | 87 | 1013.6 |
| 20260901201603 | 81 | 0 | 0.0 | 1.7 | 0.05 | 0.07 | 0.05 | 87 | 1013.6 |
| 20260901200059 | 82 | 0 | 0.0 | 1.7 | 0.05 | 0.07 | 0.05 | 86 | 1013.9 |
| 20260901194602 | 84 | 0 | 0.0 | 1.7 | 0.02 | 0.04 | 0.02 | 81 | 1014.5 |
| 20260901193115 | 86 | 0 | 0.0 | 1.7 | 0.00 | 0.02 | 0.00 | 78 | 1014.8 |
| 20260901191600 | 86 | 0 | 0.0 | 3.5 | 0.00 | 0.02 | 0.00 | 78 | 1014.6 |
| 20260901190105 | 86 | 240 | 0.9 | 7.8 | 0.00 | 0.02 | 0.00 | 78 | 1014.6 |
| 20260901184604 | 86 | 0 | 0.0 | 6.1 | 0.00 | 0.02 | 0.00 | 80 | 1014.5 |
| 20260901183103 | 86 | 0 | 0.0 | 4.3 | 0.00 | 0.02 | 0.00 | 80 | 1014.8 |
| 20260901181559 | 86 | 263 | 0.0 | 3.5 | 0.00 | 0.02 | 0.00 | 80 | 1014.9 |
| 20260901180105 | 85 | 0 | 0.0 | 5.2 | 0.00 | 0.02 | 0.00 | 82 | 1015.1 |
| 20260901174601 | 85 | 259 | 0.0 | 5.2 | 0.00 | 0.02 | 0.00 | 82 | 1015.3 |
| 20260901173104 | 85 | 0 | 0.0 | 3.5 | 0.00 | 0.02 | 0.00 | 82 | 1015.5 |
| 20260901171604 | 84 | 270 | 0.0 | 1.7 | 0.00 | 0.02 | 0.00 | 82 | 1016.0 |
| 20260901170108 | 83 | 0 | 0.0 | 1.7 | 0.00 | 0.02 | 0.00 | 83 | 1016.1 |
| 20260901164625 | 83 | 352 | 0.0 | 2.6 | 0.00 | 0.02 | 0.00 | 83 | 1016.3 |
| 20260901163101 | 82 | 63 | 0.0 | 1.7 | 0.00 | 0.02 | 0.00 | 84 | 1016.5 |
| 20260901161601 | 82 | 0 | 0.0 | 0.0 | 0.00 | 0.02 | 0.00 | 85 | 1016.3 |
| 20260901160106 | 82 | 0 | 0.0 | 0.0 | 0.00 | 0.02 | 0.00 | 85 | 1016.4 |
| 20260901154600 | 81 | 0 | 0.0 | 5.2 | 0.00 | 0.02 | 0.00 | 85 | 1016.4 |
| 20260901153103 | 81 | 0 | 0.0 | 3.5 | 0.00 | 0.02 | 0.00 | 85 | 1016.4 |
| 20260901151611 | 82 | 0 | 0.9 | 5.2 | 0.00 | 0.02 | 0.00 | 84 | 1016.3 |
| 20260901150108 | 82 | 72 | 0.9 | 3.5 | 0.00 | 0.02 | 0.00 | 84 | 1016.3 |
| 20260901144603 | 82 | 61 | 0.0 | 1.7 | 0.00 | 0.02 | 0.00 | 84 | 1016.4 |
| 20260901143104 | 82 | 0 | 0.0 | 0.9 | 0.00 | 0.02 | 0.00 | 84 | 1016.4 |
| 20260901141602 | 82 | 0 | 0.0 | 1.7 | 0.00 | 0.02 | 0.00 | 84 | 1016.3 |
| 20260901140107 | 82 | 0 | 0.0 | 1.7 | 0.00 | 0.02 | 0.00 | 84 | 1016.1 |
| 20260901134620 | 82 | 0 | 0.0 | 0.9 | 0.00 | 0.02 | 0.00 | 85 | 1016.1 |
| 20260901133101 | 81 | 0 | 0.0 | 0.0 | 0.00 | 0.02 | 0.00 | 85 | 1016.1 |
| 20260901131600 | 81 | 67 | 0.0 | 5.2 | 0.00 | 0.02 | 0.00 | 86 | 1015.7 |
| 20260901131558 | 80 | 0 | 0.0 | 5.2 | 0.00 | 0.02 | 0.00 | 85 | 1016.0 |
| 20260901131501 | 80 | 67 | 0.0 | 5.2 | 0.00 | 0.02 | 0.00 | 86 | 1015.5 |
| 20260901131048 | 80 | 67 | 0.0 | 5.2 | 0.00 | 0.02 | 0.00 | 86 | 1015.7 |
| 20260901130529 | 80 | 74 | 0.9 | 5.2 | 0.00 | 0.02 | 0.00 | 86 | 1015.8 |
| 20260901130105 | 80 | 0 | 0.0 | 1.7 | 0.00 | 0.02 | 0.00 | 86 | 1016.1 |
| 20260901130038 | 80 | 247 | 0.0 | 1.7 | 0.00 | 0.02 | 0.00 | 86 | 1015.8 |
| 20260901130008 | 79 | 247 | 0.0 | 1.7 | 0.00 | 0.02 | 0.00 | 86 | 1015.6 |
| 20260901124605 | 79 | 0 | 0.0 | 0.0 | 0.00 | 0.02 | 0.00 | 86 | 1015.9 |
| 20260901123108 | 79 | 0 | 0.0 | 0.0 | 0.00 | 0.02 | 0.00 | 87 | 1015.5 |
| 20260901121602 | 79 | 0 | 0.0 | 1.7 | 0.00 | 0.02 | 0.00 | 87 | 1015.3 |